Time;durP1;ratioP1;P1;durP2;ratioP2;P2;SDS_P1;SDS_P2;PMS_P1;PMS_P2;Temp;Humidity;BMP_temperature;BMP_pressure;BME280_temperature;BME280_humidity;BME280_pressure;Samples;Min_cycle;Max_cycle;Signal;HPM_P1;HPM_P2
2021/04/09 00:01:51;;;;;;;9.93;4.47;;;;;;;1.93;75.83;96822.84;4944885;28;20570;-72
2021/04/09 00:04:18;;;;;;;7.70;3.47;;;;;;;2.00;75.70;96819.22;4964026;28;20597;-71
2021/04/09 00:06:46;;;;;;;12.15;4.10;;;;;;;1.88;75.77;96819.56;4966044;28;20204;-73
2021/04/09 00:09:13;;;;;;;8.77;3.75;;;;;;;1.59;76.39;96790.34;4956139;28;20230;-71
2021/04/09 00:11:42;;;;;;;9.98;4.70;;;;;;;1.74;76.39;96805.38;4954759;28;20195;-70
2021/04/09 00:14:11;;;;;;;10.38;4.93;;;;;;;1.73;76.80;96807.13;4947552;28;20733;-70
2021/04/09 00:16:39;;;;;;;7.50;4.25;;;;;;;1.73;76.34;96808.81;4951830;28;20183;-71
2021/04/09 00:19:06;;;;;;;9.63;4.35;;;;;;;1.64;76.62;96807.31;4955316;28;20215;-72
2021/04/09 00:21:33;;;;;;;13.40;4.20;;;;;;;1.60;76.84;96798.03;4942247;28;20608;-70
2021/04/09 00:24:01;;;;;;;10.65;4.10;;;;;;;1.49;77.25;96794.84;4947830;28;20595;-71
2021/04/09 00:26:28;;;;;;;7.70;4.78;;;;;;;1.51;77.76;96795.69;4956021;28;20688;-72
2021/04/09 00:28:55;;;;;;;11.68;4.72;;;;;;;1.45;77.76;96797.53;4966525;28;20226;-72
2021/04/09 00:31:24;;;;;;;12.50;5.72;;;;;;;1.46;77.51;96791.53;4976068;28;20650;-70
2021/04/09 00:33:52;;;;;;;13.88;5.15;;;;;;;1.49;77.47;96789.72;4969021;28;20304;-71
2021/04/09 00:36:19;;;;;;;13.95;5.57;;;;;;;1.48;77.55;96789.78;4972555;28;20240;-71
2021/04/09 00:38:46;;;;;;;12.73;6.32;;;;;;;1.43;77.82;96789.03;4969439;28;20214;-71
2021/04/09 00:41:22;;;;;;;10.45;6.07;;;;;;;1.34;77.68;96779.84;4971909;28;20202;-69
2021/04/09 00:43:51;;;;;;;11.73;5.20;;;;;;;1.39;77.87;96778.03;4975077;28;20257;-70
2021/04/09 00:46:21;;;;;;;13.82;5.70;;;;;;;1.37;77.51;96782.34;4980361;28;20770;-70
2021/04/09 00:48:49;;;;;;;11.20;5.63;;;;;;;1.32;77.73;96773.09;4981713;28;20253;-71
2021/04/09 00:51:18;;;;;;;13.18;5.60;;;;;;;1.33;77.92;96775.59;4974544;28;20630;-71
2021/04/09 00:53:45;;;;;;;19.85;4.63;;;;;;;1.33;78.15;96772.19;4964677;28;20763;-72
2021/04/09 00:56:15;;;;;;;12.35;4.72;;;;;;;1.30;78.25;96768.00;4965681;28;20190;-70
2021/04/09 00:58:42;;;;;;;13.00;5.00;;;;;;;1.27;78.15;96768.03;4971342;28;20222;-70
2021/04/09 01:01:09;;;;;;;9.85;5.03;;;;;;;1.23;78.44;96761.31;4972378;28;20205;-71
2021/04/09 01:03:36;;;;;;;10.93;5.10;;;;;;;1.29;78.55;96771.44;4971207;28;20673;-72
2021/04/09 01:06:03;;;;;;;19.95;4.93;;;;;;;1.28;78.50;96764.63;4972653;28;20892;-72
2021/04/09 01:08:31;;;;;;;11.65;5.13;;;;;;;1.11;78.42;96756.47;4966330;28;20277;-71
2021/04/09 01:10:58;;;;;;;16.60;5.03;;;;;;;1.05;78.82;96755.78;4964399;28;20194;-70
2021/04/09 01:13:25;;;;;;;12.05;5.68;;;;;;;1.08;78.97;96755.69;4965794;28;20610;-71
2021/04/09 01:15:52;;;;;;;11.35;5.28;;;;;;;1.12;78.75;96755.59;4966933;28;20190;-70
2021/04/09 01:18:25;;;;;;;11.48;5.63;;;;;;;1.14;78.65;96753.84;4976492;28;20317;-69
2021/04/09 01:21:15;;;;;;;7.00;4.50;;;;;;;1.01;79.07;96749.88;4966334;28;20688;-70
2021/04/09 01:23:50;;;;;;;7.88;4.80;;;;;;;0.83;79.17;96755.38;4963049;28;20229;-70
2021/04/09 01:27:06;;;;;;;14.45;5.07;;;;;;;0.83;79.54;96750.25;4960190;28;20673;-69
2021/04/09 01:29:52;;;;;;;13.25;4.65;;;;;;;0.96;79.40;96746.56;4971137;28;20644;-70
2021/04/09 01:32:22;;;;;;;11.32;4.90;;;;;;;1.07;78.92;96749.75;4967945;28;20399;-70
2021/04/09 01:34:54;;;;;;;6.10;4.07;;;;;;;1.10;78.59;96741.97;4973398;28;20605;-69
2021/04/09 01:37:24;;;;;;;11.80;6.20;;;;;;;1.23;78.37;96750.22;4967473;28;20241;-70
2021/04/09 01:39:57;;;;;;;12.80;4.85;;;;;;;1.31;77.77;96743.19;4984675;28;20618;-70
2021/04/09 01:42:26;;;;;;;9.50;4.47;;;;;;;1.35;77.80;96745.66;4972180;28;20573;-70
2021/04/09 01:44:55;;;;;;;10.15;4.20;;;;;;;1.43;77.74;96748.03;4970936;28;20190;-70
2021/04/09 01:47:25;;;;;;;9.15;4.40;;;;;;;1.39;77.42;96739.56;4971278;28;20222;-69
2021/04/09 01:49:55;;;;;;;11.23;4.60;;;;;;;1.37;77.22;96737.91;4963785;28;20523;-70
2021/04/09 01:52:25;;;;;;;10.55;4.47;;;;;;;1.46;77.10;96737.69;4963618;28;20670;-70
2021/04/09 01:54:54;;;;;;;9.57;4.88;;;;;;;1.46;77.51;96735.97;4971352;28;20198;-70
2021/04/09 01:57:23;;;;;;;12.68;3.75;;;;;;;1.47;76.59;96729.97;4971579;28;20618;-71
2021/04/09 01:59:51;;;;;;;8.25;4.55;;;;;;;1.36;76.35;96715.72;4970322;28;20182;-70
2021/04/09 02:02:19;;;;;;;10.95;5.25;;;;;;;1.50;76.23;96727.34;4971571;28;20670;-69
2021/04/09 02:04:49;;;;;;;8.82;4.45;;;;;;;1.58;76.07;96722.00;4963300;28;20630;-70
2021/04/09 02:07:18;;;;;;;7.85;3.00;;;;;;;1.66;75.79;96720.94;4963831;28;20830;-69
2021/04/09 02:09:49;;;;;;;10.20;3.70;;;;;;;1.64;75.52;96716.72;4956095;28;20191;-70
2021/04/09 02:12:18;;;;;;;7.43;3.88;;;;;;;1.68;75.39;96713.19;4969297;28;20526;-68
2021/04/09 02:14:46;;;;;;;8.98;4.20;;;;;;;1.79;74.67;96717.19;4973408;28;20247;-67
2021/04/09 02:17:14;;;;;;;8.65;3.30;;;;;;;1.78;74.74;96709.50;4960040;28;20202;-67
2021/04/09 02:19:42;;;;;;;12.75;3.90;;;;;;;1.90;73.83;96704.91;4965615;28;20265;-68
2021/04/09 02:22:11;;;;;;;13.85;4.35;;;;;;;1.93;73.60;96704.81;4982495;28;20531;-71
2021/04/09 02:24:38;;;;;;;7.30;2.80;;;;;;;1.96;74.13;96703.88;4965674;28;20599;-69
2021/04/09 02:27:08;;;;;;;4.25;3.50;;;;;;;1.99;73.66;96702.06;4963662;28;20265;-68
2021/04/09 02:29:35;;;;;;;6.85;3.15;;;;;;;2.01;73.31;96705.47;4952589;28;20506;-69
2021/04/09 02:32:03;;;;;;;5.80;2.92;;;;;;;1.92;73.55;96700.56;4946583;28;20195;-69
2021/04/09 02:34:30;;;;;;;13.73;3.72;;;;;;;2.03;73.11;96707.97;4952956;28;20195;-68
2021/04/09 02:36:57;;;;;;;7.35;3.20;;;;;;;2.09;72.55;96698.41;4939157;28;20555;-70
2021/04/09 02:39:41;;;;;;;10.50;3.53;;;;;;;1.91;73.05;96701.44;4939355;28;20242;-70
2021/04/09 02:42:12;;;;;;;6.40;2.85;;;;;;;1.85;73.29;96696.47;4942118;28;20194;-69
2021/04/09 02:44:39;;;;;;;8.15;4.13;;;;;;;1.82;73.48;96694.00;4945814;28;20199;-71
2021/04/09 02:47:09;;;;;;;12.15;3.65;;;;;;;1.79;73.81;96696.66;4949249;28;20646;-71
2021/04/09 02:49:39;;;;;;;8.23;3.20;;;;;;;1.80;73.93;96688.06;4941461;28;20187;-69
2021/04/09 02:52:09;;;;;;;7.38;3.72;;;;;;;1.88;73.42;96693.84;4937826;28;20195;-70
2021/04/09 02:54:38;;;;;;;6.35;3.20;;;;;;;1.99;73.17;96689.25;4942705;28;20247;-68
2021/04/09 02:57:15;;;;;;;6.25;3.25;;;;;;;1.96;73.44;96688.50;4948455;28;20218;-71
2021/04/09 02:59:43;;;;;;;5.90;3.10;;;;;;;1.89;73.24;96682.69;4943067;28;20909;-69
2021/04/09 03:02:16;;;;;;;6.03;3.67;;;;;;;1.87;73.82;96684.47;4942297;28;20514;-70
2021/04/09 03:04:45;;;;;;;7.38;3.60;;;;;;;1.88;73.67;96682.72;4945581;28;20183;-68
2021/04/09 03:07:12;;;;;;;7.60;3.10;;;;;;;1.80;74.06;96675.25;4941374;28;20835;-69
2021/04/09 03:09:40;;;;;;;8.82;3.67;;;;;;;1.81;74.51;96669.22;4951991;28;20194;-71
2021/04/09 03:12:14;;;;;;;8.75;4.15;;;;;;;1.80;74.60;96679.53;4955622;28;20285;-70
2021/04/09 03:14:46;;;;;;;6.90;3.58;;;;;;;1.73;74.52;96685.69;4952257;28;20626;-69
2021/04/09 03:17:20;;;;;;;7.15;3.03;;;;;;;1.74;74.94;96675.41;4940173;28;20280;-69
2021/04/09 03:19:47;;;;;;;7.90;3.53;;;;;;;1.68;74.76;96673.00;4950318;28;20222;-70
2021/04/09 03:22:14;;;;;;;10.73;4.22;;;;;;;1.52;74.80;96660.59;4966608;28;20327;-70
2021/04/09 03:24:42;;;;;;;4.00;2.83;;;;;;;1.61;74.84;96675.78;4944285;28;20199;-69
2021/04/09 03:27:14;;;;;;;5.82;3.20;;;;;;;1.58;75.04;96671.56;4955003;28;20239;-69
2021/04/09 03:29:41;;;;;;;6.13;4.07;;;;;;;1.62;75.13;96675.72;4961162;28;20190;-70
2021/04/09 03:32:09;;;;;;;8.38;4.18;;;;;;;1.59;74.86;96670.69;4962792;28;20534;-69
2021/04/09 03:34:37;;;;;;;6.05;2.90;;;;;;;1.57;75.00;96663.91;4961419;28;20658;-69
2021/04/09 03:37:10;;;;;;;5.90;3.25;;;;;;;1.58;75.10;96661.31;4969683;28;20212;-70
2021/04/09 03:39:38;;;;;;;9.07;3.30;;;;;;;1.54;75.34;96664.00;4968327;28;20603;-69
2021/04/09 03:42:07;;;;;;;12.07;3.00;;;;;;;1.50;75.51;96665.81;4964529;28;20195;-68
2021/04/09 03:44:34;;;;;;;7.22;3.50;;;;;;;1.48;75.53;96664.16;4963110;28;20789;-71
2021/04/09 03:47:02;;;;;;;4.65;3.00;;;;;;;1.47;75.36;96663.28;4961706;28;20186;-69
2021/04/09 03:49:30;;;;;;;5.82;2.95;;;;;;;1.43;75.25;96659.16;4960402;28;20202;-69
2021/04/09 03:51:57;;;;;;;6.30;3.35;;;;;;;1.47;75.73;96657.34;4959676;28;20495;-69
2021/04/09 03:54:24;;;;;;;5.68;3.03;;;;;;;1.55;75.44;96663.94;4949739;28;20591;-69
2021/04/09 03:56:51;;;;;;;6.82;3.60;;;;;;;1.54;75.70;96664.00;4949309;28;20204;-71
2021/04/09 03:59:20;;;;;;;4.65;2.85;;;;;;;1.52;75.28;96666.59;4980390;28;20308;-70
2021/04/09 04:01:48;;;;;;;6.28;3.58;;;;;;;1.48;75.80;96659.84;4971439;28;20716;-69
2021/04/09 04:04:17;;;;;;;5.63;2.50;;;;;;;1.47;75.69;96663.28;4963869;28;20227;-69
2021/04/09 04:06:44;;;;;;;7.78;3.53;;;;;;;1.49;75.68;96668.41;4946193;28;20195;-69
2021/04/09 04:09:11;;;;;;;6.40;2.92;;;;;;;1.47;75.80;96668.44;4945410;28;20230;-70
2021/04/09 04:14:33;;;;;;;6.22;3.15;;;;;;;1.44;75.98;96668.50;4969770;28;20669;-69
2021/04/09 04:17:07;;;;;;;9.18;3.05;;;;;;;1.42;76.17;96665.13;4976287;28;20195;-70
2021/04/09 04:19:37;;;;;;;4.88;3.10;;;;;;;1.31;76.18;96661.16;4972989;28;20591;-69
2021/04/09 04:22:05;;;;;;;9.18;3.53;;;;;;;1.29;76.40;96668.91;4976893;28;20182;-68
2021/04/09 04:24:33;;;;;;;5.88;2.97;;;;;;;1.39;76.24;96665.22;4964009;28;20187;-70
2021/04/09 04:27:09;;;;;;;14.23;4.15;;;;;;;1.40;76.45;96666.91;4974025;28;20559;-70
2021/04/09 04:29:38;;;;;;;9.18;3.50;;;;;;;1.39;76.38;96662.66;4941717;28;20292;-71
2021/04/09 04:32:05;;;;;;;5.93;2.38;;;;;;;1.36;76.55;96659.31;4982309;28;20536;-71
2021/04/09 04:34:32;;;;;;;8.73;2.63;;;;;;;1.30;76.81;96655.22;4961312;28;20509;-72
2021/04/09 04:37:01;;;;;;;7.03;3.00;;;;;;;1.33;76.66;96660.25;4964465;28;20296;-70
2021/04/09 04:39:32;;;;;;;11.18;3.75;;;;;;;1.34;76.81;96659.34;4967004;28;20198;-71
2021/04/09 04:41:59;;;;;;;8.13;2.75;;;;;;;1.28;76.86;96662.09;4963816;28;20194;-71
2021/04/09 04:44:27;;;;;;;5.32;3.22;;;;;;;1.31;76.64;96666.28;4971741;28;20179;-69
2021/04/09 04:46:57;;;;;;;5.55;3.17;;;;;;;1.21;77.02;96660.56;4973334;28;20814;-70
2021/04/09 04:49:27;;;;;;;5.55;3.33;;;;;;;1.23;77.17;96658.78;4972107;28;20548;-70
2021/04/09 04:51:54;;;;;;;4.78;2.80;;;;;;;1.27;77.11;96670.63;4974708;28;20806;-71
2021/04/09 04:54:21;;;;;;;5.63;2.60;;;;;;;1.26;77.52;96665.56;4962344;28;20229;-71
2021/04/09 04:56:49;;;;;;;9.32;2.72;;;;;;;1.22;77.19;96667.38;4968556;28;20190;-72
2021/04/09 04:59:17;;;;;;;15.43;4.25;;;;;;;1.29;77.04;96666.34;4973230;28;20292;-70
2021/04/09 05:01:44;;;;;;;9.70;3.50;;;;;;;1.31;76.87;96668.84;4969266;28;20277;-71
2021/04/09 05:04:12;;;;;;;4.05;2.20;;;;;;;1.39;76.51;96670.34;4967962;28;20689;-69
2021/04/09 05:06:39;;;;;;;4.80;2.80;;;;;;;1.42;76.21;96662.56;4970746;28;20182;-72
2021/04/09 05:09:08;;;;;;;6.10;3.08;;;;;;;1.50;75.84;96668.38;4964797;28;20535;-71
2021/04/09 05:11:35;;;;;;;5.20;2.70;;;;;;;1.61;75.59;96671.47;4967780;28;20681;-72
2021/04/09 05:14:03;;;;;;;4.40;2.33;;;;;;;1.64;75.45;96661.13;4965212;28;20713;-71
2021/04/09 05:16:30;;;;;;;5.50;2.80;;;;;;;1.52;75.85;96651.22;4969812;28;20190;-72
2021/04/09 05:18:57;;;;;;;6.85;2.55;;;;;;;1.60;75.79;96656.97;4969759;28;20700;-70
2021/04/09 05:21:29;;;;;;;6.03;3.63;;;;;;;1.69;75.77;96659.28;4966521;28;20187;-70
2021/04/09 05:23:57;;;;;;;10.05;2.90;;;;;;;1.80;75.45;96653.88;4984364;28;20326;-70
2021/04/09 05:26:24;;;;;;;12.88;3.63;;;;;;;2.00;75.02;96665.25;4973078;28;20257;-71
2021/04/09 05:28:52;;;;;;;4.95;2.80;;;;;;;2.05;75.13;96655.72;4964987;28;20601;-72
2021/04/09 05:31:19;;;;;;;4.63;2.75;;;;;;;2.17;75.01;96659.66;4971526;28;20553;-69
2021/04/09 05:33:47;;;;;;;4.35;2.65;;;;;;;2.32;74.69;96657.50;4968594;28;20563;-70
2021/04/09 05:36:14;;;;;;;6.70;3.10;;;;;;;2.39;75.15;96659.00;4967019;28;20190;-72
2021/04/09 05:38:42;;;;;;;7.93;2.92;;;;;;;2.47;74.59;96651.91;4967287;28;20693;-71
2021/04/09 05:41:10;;;;;;;6.35;2.97;;;;;;;2.61;74.64;96652.34;4964658;28;20307;-72
2021/04/09 05:43:38;;;;;;;5.88;2.65;;;;;;;2.68;74.64;96647.84;4967923;28;20728;-70
2021/04/09 05:46:06;;;;;;;13.55;3.88;;;;;;;2.80;74.57;96650.88;4965144;28;20287;-71
2021/04/09 05:48:33;;;;;;;8.48;2.20;;;;;;;2.81;74.51;96637.13;4965337;28;20701;-72
2021/04/09 05:51:00;;;;;;;7.10;3.10;;;;;;;2.84;74.78;96631.06;4971418;28;20193;-72
2021/04/09 05:53:27;;;;;;;3.95;2.65;;;;;;;3.04;74.36;96636.44;4970372;28;20546;-72
2021/04/09 05:55:55;;;;;;;10.68;2.63;;;;;;;3.09;74.46;96627.66;4972998;28;20182;-72
2021/04/09 05:58:25;;;;;;;12.43;3.83;;;;;;;3.21;73.33;96634.13;4968778;28;20223;-71
2021/04/09 06:00:53;;;;;;;7.80;3.83;;;;;;;3.34;72.98;96635.41;4980767;28;20197;-72
2021/04/09 06:03:20;;;;;;;6.55;3.97;;;;;;;3.44;73.06;96640.22;4979349;28;20521;-69
2021/04/09 06:05:47;;;;;;;7.07;3.97;;;;;;;3.31;72.55;96644.06;4966967;28;20208;-71
2021/04/09 06:08:13;;;;;;;8.93;4.65;;;;;;;3.40;72.64;96638.66;4968012;28;20222;-71
2021/04/09 06:10:40;;;;;;;10.70;4.40;;;;;;;3.43;73.11;96638.53;4956474;28;20507;-71
2021/04/09 06:13:08;;;;;;;9.55;4.38;;;;;;;3.80;72.79;96635.53;4954767;28;20302;-72
2021/04/09 06:15:35;;;;;;;16.25;3.45;;;;;;;4.13;71.70;96624.88;4987677;28;20523;-73
2021/04/09 06:18:03;;;;;;;9.05;4.55;;;;;;;4.32;70.85;96633.59;4956993;28;20676;-70
2021/04/09 06:20:30;;;;;;;9.55;4.00;;;;;;;4.25;69.89;96637.28;4969017;28;20637;-70
2021/04/09 06:22:57;;;;;;;13.15;6.13;;;;;;;4.52;69.73;96638.84;4965193;28;20693;-70
2021/04/09 06:25:25;;;;;;;10.25;4.50;;;;;;;4.61;68.62;96638.50;4965367;28;20198;-69
2021/04/09 06:27:52;;;;;;;9.02;4.32;;;;;;;4.78;68.16;96625.78;4966191;28;20222;-71
2021/04/09 06:30:24;;;;;;;17.27;4.25;;;;;;;4.96;68.69;96632.81;4953886;28;20197;-71
2021/04/09 06:32:51;;;;;;;13.93;5.68;;;;;;;5.16;67.38;96635.44;4947348;28;20584;-70
2021/04/09 06:35:18;;;;;;;11.88;4.75;;;;;;;5.20;66.96;96634.41;4952472;28;20395;-70
2021/04/09 06:37:46;;;;;;;6.38;4.47;;;;;;;5.27;67.28;96638.41;4950317;28;20724;-71
2021/04/09 06:40:14;;;;;;;9.63;4.18;;;;;;;5.42;67.61;96630.06;4952755;28;20202;-71
2021/04/09 06:42:41;;;;;;;11.05;5.93;;;;;;;5.69;67.84;96634.06;4955824;28;20710;-71
2021/04/09 06:45:09;;;;;;;17.08;7.07;;;;;;;5.57;68.38;96632.00;4938656;28;20266;-71
2021/04/09 06:47:37;;;;;;;10.30;4.90;;;;;;;5.78;67.02;96625.94;4950199;28;20814;-71
2021/04/09 06:50:06;;;;;;;14.02;4.75;;;;;;;6.03;66.55;96621.44;4947351;28;20205;-71
2021/04/09 06:52:34;;;;;;;11.30;4.55;;;;;;;5.85;64.64;96629.97;4952541;28;20657;-71
2021/04/09 06:55:03;;;;;;;9.50;5.75;;;;;;;5.73;64.86;96627.84;4948028;28;20463;-71
2021/04/09 06:57:34;;;;;;;14.40;6.95;;;;;;;6.02;65.69;96619.72;4961734;28;20706;-71
2021/04/09 07:00:06;;;;;;;7.55;3.85;;;;;;;6.49;62.99;96621.03;4938362;28;20284;-69
2021/04/09 07:02:35;;;;;;;8.63;5.18;;;;;;;6.98;63.66;96617.81;4947485;28;20241;-71
2021/04/09 07:05:08;;;;;;;9.85;5.50;;;;;;;6.96;60.33;96624.81;4969814;28;20748;-71
2021/04/09 07:07:39;;;;;;;9.48;5.50;;;;;;;7.10;61.44;96614.66;4960561;28;20690;-69
2021/04/09 07:10:09;;;;;;;13.00;4.15;;;;;;;7.13;61.02;96609.34;4951257;28;20649;-71
2021/04/09 07:12:37;;;;;;;10.90;5.10;;;;;;;7.54;60.48;96603.81;4950995;28;20231;-71
2021/04/09 07:15:19;;;;;;;14.43;5.38;;;;;;;7.75;60.29;96609.66;4945991;28;20672;-71
2021/04/09 07:17:53;;;;;;;10.05;4.90;;;;;;;7.64;60.39;96605.03;4967670;28;20669;-71
2021/04/09 07:20:30;;;;;;;15.45;6.15;;;;;;;7.65;60.81;96611.06;4965525;28;20222;-70
2021/04/09 07:23:16;;;;;;;13.00;5.50;;;;;;;7.81;60.92;96617.94;4964429;28;20218;-71
2021/04/09 07:25:55;;;;;;;7.80;4.32;;;;;;;8.09;59.89;96596.66;4966822;28;20504;-71
2021/04/09 07:28:24;;;;;;;8.43;4.87;;;;;;;8.27;59.00;96598.31;4962463;28;20607;-69
2021/04/09 07:30:54;;;;;;;11.87;4.00;;;;;;;8.47;58.05;96596.31;4968995;28;20469;-70
2021/04/09 07:33:22;;;;;;;10.63;4.20;;;;;;;8.35;58.23;96597.81;4966019;28;20481;-71
2021/04/09 07:35:52;;;;;;;9.53;3.73;;;;;;;8.54;57.01;96593.31;4967091;28;20867;-71
2021/04/09 07:38:23;;;;;;;10.20;3.90;;;;;;;8.56;56.75;96599.25;4961139;28;20469;-70
2021/04/09 07:40:54;;;;;;;4.73;3.00;;;;;;;8.79;55.40;96598.84;4963555;28;20441;-72
2021/04/09 07:43:22;;;;;;;7.03;3.47;;;;;;;8.66;55.53;96597.00;4971335;28;20832;-70
2021/04/09 07:45:53;;;;;;;4.63;2.70;;;;;;;8.32;55.97;96595.38;4965775;28;21197;-71
2021/04/09 07:48:27;;;;;;;7.33;3.00;;;;;;;8.02;57.62;96584.94;4969966;28;21246;-71
2021/04/09 07:50:56;;;;;;;7.37;3.07;;;;;;;8.06;56.74;96589.03;4965691;28;20447;-71
2021/04/09 07:53:45;;;;;;;4.28;2.05;;;;;;;7.88;58.00;96582.22;4967837;28;21207;-71
2021/04/09 07:56:14;;;;;;;14.93;3.22;;;;;;;8.13;57.69;96579.09;4969505;28;20190;-70
2021/04/09 07:58:54;;;;;;;5.40;3.10;;;;;;;8.24;56.98;96578.56;4969880;28;20749;-71
2021/04/09 08:01:24;;;;;;;4.78;2.90;;;;;;;8.13;57.02;96582.59;4966271;28;20248;-70
2021/04/09 08:03:52;;;;;;;11.63;2.77;;;;;;;8.01;56.39;96580.66;4971956;28;20237;-71
2021/04/09 08:06:22;;;;;;;8.95;2.55;;;;;;;7.93;56.06;96587.97;4966600;28;20976;-71
2021/04/09 08:08:57;;;;;;;3.30;2.10;;;;;;;7.98;56.43;96573.88;4970752;28;20719;-72
2021/04/09 08:11:31;;;;;;;5.93;2.70;;;;;;;8.02;54.77;96582.34;4957432;28;20198;-71
2021/04/09 08:14:10;;;;;;;8.88;2.72;;;;;;;8.01;55.36;96580.66;4955937;28;20481;-71
2021/04/09 08:16:39;;;;;;;3.28;1.85;;;;;;;8.09;54.77;96578.50;4967112;28;20182;-71
2021/04/09 08:19:10;;;;;;;13.27;7.10;;;;;;;8.08;55.19;96567.28;4967698;28;20223;-69
2021/04/09 08:21:40;;;;;;;8.67;2.97;;;;;;;8.09;54.84;96568.97;4965836;28;20194;-72
2021/04/09 08:24:09;;;;;;;6.40;2.50;;;;;;;8.00;53.89;96566.00;4963603;28;20781;-71
2021/04/09 08:26:36;;;;;;;5.05;2.20;;;;;;;7.99;54.71;96572.13;4971251;28;20221;-70
2021/04/09 08:29:07;;;;;;;6.35;2.65;;;;;;;7.95;54.72;96573.22;4968248;28;20528;-70
2021/04/09 08:31:36;;;;;;;5.07;2.30;;;;;;;7.99;54.53;96564.34;4967979;28;20222;-70
2021/04/09 08:34:04;;;;;;;4.93;2.20;;;;;;;8.04;55.75;96564.94;4968275;28;21044;-71
2021/04/09 08:36:31;;;;;;;3.85;2.30;;;;;;;8.17;55.43;96560.78;4969381;28;20511;-70
2021/04/09 08:39:03;;;;;;;4.72;1.85;;;;;;;8.20;52.64;96561.50;4966160;28;20222;-70
2021/04/09 08:41:33;;;;;;;3.10;1.90;;;;;;;8.25;54.26;96564.66;4966014;28;20226;-71
2021/04/09 08:44:00;;;;;;;4.93;2.20;;;;;;;8.25;52.94;96553.47;4967422;28;20534;-71
2021/04/09 08:46:27;;;;;;;3.70;2.20;;;;;;;8.13;52.23;96547.16;4971158;28;20940;-71
2021/04/09 08:48:56;;;;;;;4.53;1.90;;;;;;;8.11;52.58;96551.59;4970928;28;20972;-71
2021/04/09 08:51:24;;;;;;;5.00;1.65;;;;;;;8.21;52.58;96557.13;4968282;28;20653;-71
2021/04/09 08:53:51;;;;;;;9.23;1.70;;;;;;;8.20;51.95;96565.84;4968066;28;20597;-72
2021/04/09 08:56:42;;;;;;;2.30;1.70;;;;;;;8.22;52.28;96558.81;4968214;28;20221;-70
2021/04/09 08:59:09;;;;;;;3.50;1.63;;;;;;;8.37;52.20;96558.03;4965155;28;20264;-70
2021/04/09 09:01:37;;;;;;;8.98;2.25;;;;;;;8.41;53.22;96560.34;4973084;28;20452;-71
2021/04/09 09:04:33;;;;;;;5.10;1.73;;;;;;;8.51;52.02;96557.19;4965411;28;20218;-71
2021/04/09 09:07:03;;;;;;;5.80;2.50;;;;;;;8.45;52.01;96560.09;4958158;28;20454;-70
2021/04/09 09:09:32;;;;;;;9.20;5.30;;;;;;;8.47;52.69;96560.00;4961257;28;20426;-71
2021/04/09 09:12:00;;;;;;;9.40;4.28;;;;;;;8.54;51.90;96557.00;4958900;28;20722;-70
2021/04/09 09:14:48;;;;;;;5.53;2.07;;;;;;;8.69;51.27;96556.16;4969567;28;20228;-72
2021/04/09 09:17:48;;;;;;;5.50;2.37;;;;;;;8.84;51.69;96549.28;4957667;28;20465;-71
2021/04/09 09:20:20;;;;;;;8.63;2.80;;;;;;;9.01;50.88;96552.59;4959571;28;20446;-72
2021/04/09 09:22:55;;;;;;;11.60;2.73;;;;;;;9.13;50.35;96546.72;4956632;28;20762;-71
2021/04/09 09:25:36;;;;;;;7.33;2.40;;;;;;;9.25;49.53;96547.78;4957962;28;20918;-71
2021/04/09 09:28:09;;;;;;;9.00;1.90;;;;;;;9.21;49.56;96546.28;4942360;28;20986;-71
2021/04/09 09:30:39;;;;;;;5.40;2.17;;;;;;;9.34;49.80;96545.50;4953227;28;20444;-72
2021/04/09 09:33:33;;;;;;;6.60;2.13;;;;;;;9.52;49.37;96546.19;4950445;28;20551;-72
2021/04/09 09:36:04;;;;;;;4.17;1.97;;;;;;;9.70;49.81;96532.94;4921289;28;20672;-70
2021/04/09 09:38:58;;;;;;;5.13;2.13;;;;;;;9.98;49.83;96534.72;4937729;28;20888;-72
2021/04/09 09:41:44;;;;;;;3.03;2.00;;;;;;;10.25;48.67;96536.47;4926153;28;20457;-72
2021/04/09 09:44:33;;;;;;;3.73;1.70;;;;;;;10.43;48.67;96526.72;4938704;28;20468;-69
2021/04/09 09:47:06;;;;;;;5.50;2.10;;;;;;;10.70;48.28;96528.41;4945081;28;20434;-69
2021/04/09 09:49:36;;;;;;;5.90;2.40;;;;;;;10.75;48.20;96526.34;4945062;28;20913;-71
2021/04/09 09:52:22;;;;;;;4.60;1.90;;;;;;;10.96;47.77;96513.72;4946209;28;20516;-71
2021/04/09 09:55:14;;;;;;;4.37;2.03;;;;;;;11.23;46.63;96517.13;4940788;28;20920;-71
2021/04/09 09:57:43;;;;;;;6.60;2.50;;;;;;;11.30;46.74;96513.19;4945519;28;20956;-71
2021/04/09 10:00:12;;;;;;;5.70;2.30;;;;;;;11.43;45.36;96501.84;4951014;28;20423;-71
2021/04/09 10:02:40;;;;;;;3.50;1.70;;;;;;;11.49;46.13;96506.66;4946317;28;20800;-71
2021/04/09 10:05:09;;;;;;;4.90;1.70;;;;;;;11.54;46.50;96501.13;4947376;28;20442;-69
2021/04/09 10:07:37;;;;;;;3.30;1.53;;;;;;;11.62;45.76;96497.09;4962286;28;20799;-70
2021/04/09 10:10:06;;;;;;;4.93;1.67;;;;;;;11.57;45.59;96501.75;4963419;28;20434;-74
2021/04/09 10:12:34;;;;;;;3.90;2.40;;;;;;;11.48;45.87;96502.38;4951010;28;20793;-71
2021/04/09 10:15:02;;;;;;;2.50;1.40;;;;;;;11.48;46.27;96491.94;4946055;28;20456;-70
2021/04/09 10:17:30;;;;;;;4.77;1.87;;;;;;;11.41;46.04;96490.69;4951187;28;20909;-70
2021/04/09 10:19:58;;;;;;;6.17;2.80;;;;;;;11.46;46.14;96496.44;4949603;28;20916;-70
2021/04/09 10:22:25;;;;;;;4.90;2.03;;;;;;;11.39;45.38;96497.78;4937004;28;20947;-71
2021/04/09 10:24:52;;;;;;;48.07;18.97;;;;;;;11.53;46.43;96502.06;4937981;28;20430;-71
2021/04/09 10:27:20;;;;;;;12.80;2.50;;;;;;;11.72;46.20;96502.53;4956318;28;20528;-72
2021/04/09 10:29:48;;;;;;;8.93;3.37;;;;;;;11.78;45.46;96500.34;4961164;28;20956;-72
2021/04/09 10:32:19;;;;;;;12.73;2.10;;;;;;;11.79;45.43;96494.19;4971146;28;20445;-72
2021/04/09 10:34:48;;;;;;;7.00;2.53;;;;;;;11.83;45.77;96493.03;4970844;28;20495;-71
2021/04/09 10:37:25;;;;;;;6.37;1.97;;;;;;;11.83;45.42;96485.22;4972947;28;20449;-71
2021/04/09 10:39:55;;;;;;;2.97;2.13;;;;;;;11.98;45.31;96489.38;4969121;28;20777;-72
2021/04/09 10:42:21;;;;;;;9.27;2.00;;;;;;;12.04;44.58;96478.53;4974420;28;20940;-70
2021/04/09 10:44:49;;;;;;;5.30;2.30;;;;;;;12.18;44.81;96482.78;4972006;28;20903;-71
2021/04/09 10:47:17;;;;;;;9.30;2.70;;;;;;;12.39;45.38;96482.13;4968315;28;20440;-71
2021/04/09 10:49:44;;;;;;;7.33;2.07;;;;;;;12.63;44.67;96479.50;4963953;28;20476;-72
2021/04/09 10:52:14;;;;;;;10.00;1.93;;;;;;;12.44;43.90;96477.38;4964001;28;20444;-70
2021/04/09 10:54:43;;;;;;;8.40;2.03;;;;;;;12.31;44.48;96478.38;4972454;28;20789;-72
2021/04/09 10:57:13;;;;;;;4.63;1.53;;;;;;;12.28;44.70;96468.16;4966499;28;20512;-70
2021/04/09 10:59:42;;;;;;;11.17;2.63;;;;;;;12.28;45.12;96468.97;4965616;28;21171;-71
2021/04/09 11:02:11;;;;;;;3.00;1.90;;;;;;;12.28;44.63;96463.75;4971859;28;20441;-71
2021/04/09 11:04:39;;;;;;;9.03;2.10;;;;;;;12.39;44.26;96465.59;4969048;28;20550;-73
2021/04/09 11:07:10;;;;;;;4.47;1.67;;;;;;;12.42;44.12;96461.00;4968787;28;20818;-72
2021/04/09 11:09:58;;;;;;;3.30;1.70;;;;;;;12.65;44.77;96468.00;4957225;28;20429;-71
2021/04/09 11:12:27;;;;;;;4.80;1.60;;;;;;;12.66;43.97;96467.06;4954858;28;20464;-71
2021/04/09 11:15:06;;;;;;;5.33;2.10;;;;;;;12.59;44.20;96468.44;4963547;28;20471;-72
2021/04/09 11:17:35;;;;;;;4.30;2.30;;;;;;;12.45;43.58;96452.94;4955521;28;20544;-71
2021/04/09 11:20:23;;;;;;;4.63;1.43;;;;;;;12.51;43.99;96444.66;4965635;28;20441;-71
2021/04/09 11:23:01;;;;;;;7.70;2.20;;;;;;;12.78;44.35;96442.69;4964090;28;20458;-70
2021/04/09 11:25:36;;;;;;;4.77;1.83;;;;;;;12.88;42.86;96435.81;4972576;28;20935;-72
2021/04/09 11:28:05;;;;;;;3.23;1.80;;;;;;;12.92;44.25;96439.91;4936710;28;20480;-71
2021/04/09 11:30:35;;;;;;;7.83;2.10;;;;;;;13.24;42.94;96426.13;4942419;28;20454;-71
2021/04/09 11:33:06;;;;;;;6.80;1.77;;;;;;;13.47;42.05;96427.84;4950976;28;20470;-72
2021/04/09 11:35:36;;;;;;;3.70;1.77;;;;;;;13.47;42.64;96422.59;4950751;28;20773;-70
2021/04/09 11:38:38;;;;;;;9.70;2.30;;;;;;;13.59;41.79;96411.22;4939993;28;20579;-72
2021/04/09 11:41:29;;;;;;;5.60;1.93;;;;;;;13.66;41.71;96417.66;4946950;28;20466;-70
2021/04/09 11:43:57;;;;;;;5.17;1.83;;;;;;;14.00;41.84;96411.44;4935310;28;20470;-71
2021/04/09 11:46:34;;;;;;;2.70;1.40;;;;;;;14.02;42.38;96413.94;4942009;28;20933;-72
2021/04/09 11:49:03;;;;;;;7.00;2.30;;;;;;;14.06;42.10;96410.13;4943618;28;20458;-70
2021/04/09 11:51:30;;;;;;;26.20;10.80;;;;;;;13.93;42.12;96401.59;4940090;28;20457;-72
2021/04/09 11:53:59;;;;;;;24.60;13.67;;;;;;;14.29;41.61;96401.34;4939414;28;20946;-72
2021/04/09 11:56:41;;;;;;;5.53;1.80;;;;;;;14.54;41.53;96395.78;4955774;28;20482;-70